Pagina principale
METAR-TAF:

METAR-TAF

Aeroporti :

Grazzanise, Italia

latitudine: 41-03N, longitudine: 014-04E, altezza: 9 m

Osservazione

Il bollettino è stato emesso 1 ora e 9 minuti fa, alle 12:55 UTC
Temperature 25°C
Umidità 74%
Pressione 1017 hPa
Visibilità 10 km o più
Nubi sparse ad un'altezza di 2500 ft
Nubi sparse ad un'altezza di 6000 ft

METAR: LIRM 271255Z /////KT 9999 SCT025 SCT060 25/20 Q1017

Ora: 16:04 (14:04 UTC)

Previsione

Il bollettino è stato emesso 3 ore e 4 minuti fa, alle 11:00 UTC
Previsione valida dal 27 alle 12 UTC al 27 alle 21 UTC
Vento 6 kt da ovest/sud-ovest
Visibilità: 8000 m
Nubi sparse ad un'altezza di 2500 ft
Nubi sparse ad un'altezza di 7000 ft
Temporaneamente
dal 27 alle 13 UTC al 27 alle 18 UTC
Visibilità: 5000 m
pioggia

TAF: LIRM 271100Z 2712/2721 25006KT 8000 SCT025 SCT070 TEMPO 2713/2718 5000 RA

Osservazioni e previsioni meteorologiche di più di 4000 aeroporti (messaggi METAR e TAF).

Le stazioni disponibili sono rappresentate dai dischi gialli e rossi sulla carta.

Puntare il mouse per vedere il nome della stazione.

Clicca sopra per visualizzare le osservazioni e previsioni meteorologiche.

Per cambiare la mappa : fare clic sui pulsanti verdi con una croce nera per ingrandire, il pulsante verde con un trattino per diminuire, o sulla freccia verde per le mappe adiacenti.


METAR-TAF: